Time;durP1;ratioP1;P1;durP2;ratioP2;P2;SDS_P1;SDS_P2;PMS_P1;PMS_P2;Temp;Humidity;BMP_temperature;BMP_pressure;BME280_temperature;BME280_humidity;BME280_pressure;Samples;Min_cycle;Max_cycle;Signal;HPM_P1;HPM_P2
2021/08/11 00:03:30;;;;;;;8.63;4.20;;;;;;;21.05;53.25;98177.41;8384949;28;20217;-84
2021/08/11 00:07:35;;;;;;;5.97;4.07;;;;;;;21.02;53.41;98172.41;8385108;28;20499;-85
2021/08/11 00:11:38;;;;;;;7.10;3.90;;;;;;;21.01;53.52;98165.47;8385025;28;20208;-85
2021/08/11 00:15:40;;;;;;;10.00;4.30;;;;;;;20.98;53.35;98175.41;8384830;28;20252;-85
2021/08/11 00:19:43;;;;;;;7.77;3.50;;;;;;;20.92;54.11;98175.94;8384776;28;20251;-85
2021/08/11 00:23:48;;;;;;;6.13;4.00;;;;;;;20.91;53.48;98190.91;8384824;28;20206;-85
2021/08/11 00:27:52;;;;;;;6.30;3.80;;;;;;;20.85;54.03;98192.25;8384367;28;20203;-85
2021/08/11 00:31:54;;;;;;;5.97;4.13;;;;;;;20.81;54.38;98201.34;8384532;28;20209;-85
2021/08/11 00:35:57;;;;;;;9.37;4.47;;;;;;;20.80;54.40;98212.00;8384150;28;20541;-85
2021/08/11 00:40:01;;;;;;;5.13;3.80;;;;;;;20.76;54.39;98203.53;8384282;28;20406;-85
2021/08/11 00:44:05;;;;;;;6.50;3.83;;;;;;;20.61;54.16;98202.97;8383368;28;20204;-85
2021/08/11 00:48:08;;;;;;;6.90;4.23;;;;;;;20.54;54.98;98200.94;8387331;28;20210;-85
2021/08/11 00:52:11;;;;;;;9.13;4.33;;;;;;;20.34;55.37;98206.03;8383829;28;20228;-85
2021/08/11 00:56:17;;;;;;;7.40;4.20;;;;;;;20.53;55.63;98212.44;8383641;28;20226;-85
2021/08/11 01:00:20;;;;;;;6.53;4.60;;;;;;;20.54;55.48;98208.84;8383502;28;20200;-86
2021/08/11 01:04:24;;;;;;;8.03;4.37;;;;;;;20.54;55.14;98208.84;8383481;28;20219;-85
2021/08/11 01:08:27;;;;;;;6.87;4.23;;;;;;;20.48;55.51;98202.28;8383285;28;20202;-85
2021/08/11 01:12:31;;;;;;;8.00;4.20;;;;;;;20.39;55.58;98208.28;8383183;28;20228;-85
2021/08/11 01:16:37;;;;;;;8.00;4.13;;;;;;;20.36;55.54;98206.75;8383241;28;20204;-85
2021/08/11 01:20:45;;;;;;;6.97;4.33;;;;;;;20.31;55.70;98208.91;8383396;28;20208;-85
2021/08/11 01:24:52;;;;;;;5.93;3.80;;;;;;;20.29;55.01;98214.28;8383157;28;20240;-85
2021/08/11 01:29:03;;;;;;;7.77;4.40;;;;;;;20.21;55.49;98205.34;8383188;28;20199;-85
2021/08/11 01:33:30;;;;;;;9.27;4.63;;;;;;;20.16;55.58;98203.06;8383082;28;20231;-85
2021/08/11 01:37:35;;;;;;;6.27;4.30;;;;;;;20.15;55.62;98203.22;8382661;28;20251;-85
2021/08/11 01:41:42;;;;;;;5.70;3.80;;;;;;;20.04;55.54;98209.31;8382971;28;20212;-85
2021/08/11 01:45:45;;;;;;;6.80;4.10;;;;;;;20.11;55.57;98207.88;8382794;28;20213;-85
2021/08/11 01:49:50;;;;;;;9.87;4.17;;;;;;;20.04;56.48;98207.53;8382899;28;20205;-85
2021/08/11 01:53:53;;;;;;;5.60;3.90;;;;;;;20.07;56.09;98211.72;8386038;28;20413;-85
2021/08/11 01:57:56;;;;;;;8.37;4.03;;;;;;;20.09;56.22;98215.06;8389045;28;20200;-85
2021/08/11 02:01:59;;;;;;;10.70;4.50;;;;;;;19.99;56.37;98208.84;8389148;28;20496;-85
2021/08/11 02:06:05;;;;;;;6.07;4.40;;;;;;;19.98;56.18;98205.38;8388833;28;20225;-85
2021/08/11 02:10:10;;;;;;;7.43;4.70;;;;;;;19.91;56.66;98202.41;8388748;28;20206;-85
2021/08/11 02:14:13;;;;;;;7.73;4.90;;;;;;;19.85;56.70;98200.25;8388540;28;20232;-85
2021/08/11 02:18:16;;;;;;;7.40;4.80;;;;;;;19.91;56.50;98209.44;8388683;28;20239;-85
2021/08/11 02:22:20;;;;;;;6.13;4.50;;;;;;;19.92;56.63;98203.25;8388566;28;20204;-85
2021/08/11 02:26:28;;;;;;;6.53;4.73;;;;;;;19.75;56.84;98201.13;8388165;28;20213;-85
2021/08/11 02:30:37;;;;;;;7.00;4.73;;;;;;;19.80;56.84;98205.06;8388154;28;20208;-85
2021/08/11 02:34:44;;;;;;;10.37;4.87;;;;;;;19.78;56.78;98206.97;8388137;28;20450;-85
2021/08/11 02:38:48;;;;;;;7.23;4.60;;;;;;;19.75;57.32;98201.13;8388015;28;20524;-85
2021/08/11 02:42:57;;;;;;;6.90;4.70;;;;;;;19.71;57.42;98206.56;8387691;28;20214;-85
2021/08/11 02:47:00;;;;;;;9.47;5.30;;;;;;;19.70;57.15;98196.16;8387601;28;20202;-85
2021/08/11 02:51:04;;;;;;;6.47;4.93;;;;;;;19.70;57.45;98201.41;8387472;28;20495;-85
2021/08/11 02:55:09;;;;;;;7.13;4.43;;;;;;;19.68;57.35;98196.28;8387252;28;20552;-85
2021/08/11 02:59:12;;;;;;;10.17;5.03;;;;;;;19.70;57.80;98202.28;8387486;28;20499;-85
2021/08/11 03:03:16;;;;;;;10.50;4.77;;;;;;;19.73;57.60;98207.31;8387280;28;20208;-85
2021/08/11 03:07:19;;;;;;;7.60;4.97;;;;;;;19.76;57.36;98211.47;8386368;28;20413;-84
2021/08/11 03:11:23;;;;;;;7.67;4.30;;;;;;;19.81;57.51;98213.75;8386735;28;20208;-84
2021/08/11 03:15:28;;;;;;;9.83;4.70;;;;;;;19.64;57.94;98207.16;8386741;28;20239;-85
2021/08/11 03:19:31;;;;;;;9.47;5.00;;;;;;;19.76;58.24;98205.41;8386667;28;20209;-85
2021/08/11 03:23:34;;;;;;;6.27;4.87;;;;;;;19.79;57.79;98206.00;8386280;28;20376;-85
2021/08/11 03:27:38;;;;;;;7.47;4.60;;;;;;;19.84;57.37;98201.22;8386274;28;20199;-85
2021/08/11 03:31:41;;;;;;;6.03;4.60;;;;;;;19.67;57.45;98205.13;8386053;28;20201;-85
2021/08/11 03:35:44;;;;;;;6.87;4.17;;;;;;;19.77;57.86;98204.44;8386042;28;20410;-86
2021/08/11 03:39:47;;;;;;;5.97;4.30;;;;;;;19.75;57.60;98203.75;8385947;28;20201;-85
2021/08/11 03:43:51;;;;;;;5.93;4.83;;;;;;;19.75;58.31;98206.38;8387103;28;20204;-85
2021/08/11 03:47:55;;;;;;;8.53;4.00;;;;;;;19.78;58.21;98206.97;8385995;28;20200;-85
2021/08/11 03:51:58;;;;;;;5.70;4.50;;;;;;;19.77;58.21;98214.97;8385862;28;20240;-85
2021/08/11 03:56:01;;;;;;;8.13;4.47;;;;;;;19.73;57.98;98209.94;8385502;28;20547;-86
2021/08/11 04:00:07;;;;;;;6.83;4.60;;;;;;;19.73;58.07;98217.81;8385661;28;20371;-85
2021/08/11 04:04:09;;;;;;;6.77;4.37;;;;;;;19.70;58.10;98218.03;8385082;28;20224;-85
2021/08/11 04:08:12;;;;;;;4.97;4.40;;;;;;;19.67;58.79;98213.00;8385378;28;20201;-85
2021/08/11 04:12:15;;;;;;;7.50;4.33;;;;;;;19.67;58.31;98220.06;8385129;28;20386;-85
2021/08/11 04:16:19;;;;;;;7.17;4.07;;;;;;;19.70;58.23;98227.69;8384546;28;20239;-85
2021/08/11 04:20:23;;;;;;;9.40;4.57;;;;;;;19.65;58.87;98227.25;8384702;28;20201;-85
2021/08/11 04:24:26;;;;;;;8.47;4.47;;;;;;;19.68;58.46;98232.22;8384617;28;20208;-85
2021/08/11 04:28:28;;;;;;;8.93;4.77;;;;;;;19.76;58.79;98239.56;8384599;28;20209;-85
2021/08/11 04:32:36;;;;;;;6.13;4.60;;;;;;;19.71;58.77;98235.47;8384468;28;20200;-85
2021/08/11 04:36:39;;;;;;;6.77;4.73;;;;;;;19.73;58.66;98240.63;8384136;28;20252;-85
2021/08/11 04:40:42;;;;;;;7.47;4.47;;;;;;;19.78;58.60;98254.25;8384046;28;20208;-86
2021/08/11 04:44:44;;;;;;;5.90;4.43;;;;;;;19.80;58.28;98249.72;8383981;28;20404;-85
2021/08/11 04:48:49;;;;;;;8.40;4.90;;;;;;;19.82;58.32;98253.06;8383864;28;20200;-85
2021/08/11 04:52:52;;;;;;;6.47;5.07;;;;;;;19.91;58.40;98251.50;8383855;28;20208;-85
2021/08/11 04:56:57;;;;;;;7.27;5.13;;;;;;;19.98;58.15;98250.06;8383818;28;20223;-86
2021/08/11 05:00:59;;;;;;;7.17;5.20;;;;;;;20.01;58.26;98249.84;8383525;28;20214;-85
2021/08/11 05:05:05;;;;;;;8.50;5.30;;;;;;;20.02;58.10;98246.22;8383305;28;20223;-85
2021/08/11 05:09:08;;;;;;;10.80;5.00;;;;;;;20.01;57.66;98251.59;8383568;28;20208;-85
2021/08/11 05:13:12;;;;;;;6.30;5.13;;;;;;;20.08;57.62;98252.81;8383317;28;20509;-85
2021/08/11 05:17:20;;;;;;;9.23;5.50;;;;;;;20.12;58.01;98262.13;8383307;28;20231;-85
2021/08/11 05:21:25;;;;;;;6.87;5.57;;;;;;;20.18;57.46;98247.66;8383146;28;20202;-85
2021/08/11 05:25:28;;;;;;;10.67;5.47;;;;;;;20.09;57.98;98252.69;8383041;28;20206;-85
2021/08/11 05:29:32;;;;;;;9.30;4.90;;;;;;;20.27;58.21;98252.19;8382501;28;20506;-85
2021/08/11 05:33:35;;;;;;;9.57;5.70;;;;;;;20.36;57.46;98248.81;8382878;28;20212;-85
2021/08/11 05:37:39;;;;;;;9.37;5.27;;;;;;;20.36;57.21;98250.63;8382704;28;20252;-85
2021/08/11 05:41:42;;;;;;;6.73;5.07;;;;;;;20.41;56.97;98259.81;8382871;28;20206;-85
2021/08/11 05:45:45;;;;;;;8.37;5.53;;;;;;;20.40;57.58;98267.81;8382665;28;20204;-85
2021/08/11 05:49:48;;;;;;;8.33;5.60;;;;;;;20.52;57.20;98264.19;8382588;28;20202;-85
2021/08/11 05:53:52;;;;;;;9.37;6.30;;;;;;;20.58;57.51;98286.53;8382607;28;20202;-85
2021/08/11 05:57:55;;;;;;;7.07;5.37;;;;;;;20.73;56.91;98289.78;8382601;28;20204;-85
2021/08/11 06:01:58;;;;;;;9.40;5.60;;;;;;;20.77;57.01;98286.78;8382743;28;20202;-86
2021/08/11 06:06:01;;;;;;;6.73;5.27;;;;;;;21.02;55.89;98282.97;8382418;28;20231;-85
2021/08/11 06:10:07;;;;;;;9.53;5.20;;;;;;;21.13;55.82;98300.50;8382402;28;20200;-85
2021/08/11 06:14:10;;;;;;;9.33;5.43;;;;;;;21.41;55.01;98293.78;8382633;28;20555;-85
2021/08/11 06:18:13;;;;;;;6.80;5.33;;;;;;;21.64;54.81;98302.41;8382287;28;20387;-85
2021/08/11 06:22:16;;;;;;;7.07;5.07;;;;;;;21.82;54.40;98297.41;8382189;28;20210;-86
2021/08/11 06:26:21;;;;;;;11.23;5.43;;;;;;;21.88;54.64;98285.50;8382368;28;20203;-86
2021/08/11 06:30:24;;;;;;;11.10;5.43;;;;;;;21.94;54.63;98284.97;8382117;28;20393;-86
2021/08/11 06:34:27;;;;;;;9.77;4.90;;;;;;;22.13;54.68;98300.03;8382074;28;20235;-86
2021/08/11 06:38:30;;;;;;;9.17;5.40;;;;;;;22.15;54.24;98297.25;8382044;28;20239;-85
2021/08/11 06:42:34;;;;;;;6.03;5.00;;;;;;;22.23;53.98;98297.41;8387429;28;20200;-86
2021/08/11 06:46:37;;;;;;;7.30;5.83;;;;;;;22.39;54.61;98291.66;8388312;28;20392;-86
2021/08/11 06:50:40;;;;;;;7.57;5.63;;;;;;;22.30;54.28;98285.41;8387583;28;20225;-86
2021/08/11 06:54:42;;;;;;;9.40;5.10;;;;;;;22.42;55.04;98288.75;8387421;28;20228;-85
2021/08/11 06:58:47;;;;;;;9.63;5.00;;;;;;;22.44;54.56;98292.09;8387275;28;20211;-85
2021/08/11 07:02:50;;;;;;;7.13;4.73;;;;;;;22.39;54.24;98291.66;8387215;28;20499;-86
2021/08/11 07:06:54;;;;;;;7.63;4.57;;;;;;;22.25;54.54;98288.44;8387000;28;20545;-86
2021/08/11 07:10:57;;;;;;;9.10;3.93;;;;;;;22.55;54.81;98289.34;8387374;28;20497;-85
2021/08/11 07:15:02;;;;;;;5.57;3.97;;;;;;;22.76;54.27;98293.69;8386694;28;20235;-85
2021/08/11 07:19:04;;;;;;;7.20;4.73;;;;;;;22.56;54.00;98296.31;8386801;28;20206;-86
2021/08/11 07:23:07;;;;;;;6.87;4.73;;;;;;;22.32;54.46;98298.47;8386394;28;20207;-85
2021/08/11 07:27:10;;;;;;;6.97;5.00;;;;;;;22.52;54.38;98297.53;8386597;28;20215;-85
2021/08/11 07:31:14;;;;;;;7.23;4.33;;;;;;;22.61;54.72;98301.16;8386522;28;20211;-85
2021/08/11 07:35:17;;;;;;;9.13;4.83;;;;;;;22.74;54.69;98293.00;8385941;28;20250;-85
2021/08/11 07:39:21;;;;;;;7.67;4.50;;;;;;;23.32;53.62;98298.31;8386029;28;20234;-86
2021/08/11 07:43:23;;;;;;;7.60;4.27;;;;;;;23.80;51.18;98296.59;8385993;28;20214;-86
2021/08/11 07:47:28;;;;;;;6.97;4.67;;;;;;;24.19;49.34;98302.53;8385805;28;20396;-84
2021/08/11 07:51:31;;;;;;;6.00;4.33;;;;;;;24.90;48.27;98305.50;8385145;28;20206;-84
2021/08/11 07:55:33;;;;;;;8.17;4.63;;;;;;;24.37;48.73;98299.97;8385398;28;20412;-86
2021/08/11 07:59:36;;;;;;;9.57;3.87;;;;;;;24.31;49.96;98300.56;8385330;28;20203;-85
2021/08/11 08:03:41;;;;;;;9.87;4.80;;;;;;;24.13;49.58;98303.13;8385454;28;20519;-85
2021/08/11 08:07:44;;;;;;;9.93;4.40;;;;;;;23.92;50.60;98310.47;8385286;28;20526;-85
2021/08/11 08:11:48;;;;;;;6.83;3.87;;;;;;;23.99;51.04;98298.34;8384819;28;20200;-86
2021/08/11 08:15:52;;;;;;;4.80;3.63;;;;;;;24.20;50.12;98295.47;8384743;28;20231;-85
2021/08/11 08:19:56;;;;;;;7.70;3.60;;;;;;;24.15;49.05;98289.78;8384645;28;20200;-86
2021/08/11 08:23:59;;;;;;;8.03;3.70;;;;;;;24.03;48.88;98294.41;8384683;28;20201;-86
2021/08/11 08:28:02;;;;;;;7.27;3.57;;;;;;;23.95;49.39;98300.44;8384945;28;20500;-85
2021/08/11 08:32:19;;;;;;;4.83;3.60;;;;;;;24.22;48.29;98303.22;8384536;28;20215;-85
2021/08/11 08:36:24;;;;;;;6.27;3.43;;;;;;;25.42;46.35;98302.16;8384174;28;20237;-85
2021/08/11 08:40:30;;;;;;;6.47;3.40;;;;;;;25.92;42.41;98299.72;8384289;28;20211;-85
2021/08/11 08:44:35;;;;;;;6.40;3.57;;;;;;;26.30;42.27;98296.75;8386492;28;20224;-85
2021/08/11 08:48:39;;;;;;;5.43;3.00;;;;;;;26.11;42.81;98296.00;8384953;28;20210;-87
2021/08/11 08:52:44;;;;;;;6.23;3.53;;;;;;;26.31;43.53;98299.25;8384139;28;20201;-85
2021/08/11 08:56:47;;;;;;;4.93;3.20;;;;;;;26.40;41.95;98305.41;8383638;28;20238;-86
2021/08/11 09:00:50;;;;;;;4.27;2.90;;;;;;;26.81;41.30;98299.44;8383468;28;20202;-84
2021/08/11 09:04:53;;;;;;;5.93;3.17;;;;;;;26.51;41.09;98307.78;8382742;28;20225;-87
2021/08/11 09:08:58;;;;;;;7.80;3.27;;;;;;;26.40;42.24;98304.59;8383505;28;20385;-84
2021/08/11 09:13:06;;;;;;;5.67;3.27;;;;;;;26.41;42.75;98311.56;8383244;28;20202;-84
2021/08/11 09:17:09;;;;;;;4.77;3.07;;;;;;;26.49;43.37;98314.25;8383250;28;20231;-85
2021/08/11 09:21:12;;;;;;;6.30;3.30;;;;;;;27.26;42.01;98309.63;8383100;28;20203;-84
2021/08/11 09:25:17;;;;;;;4.33;2.93;;;;;;;26.84;41.40;98315.03;8383205;28;20207;-85
2021/08/11 09:29:20;;;;;;;5.73;3.07;;;;;;;26.36;44.24;98308.56;8382927;28;20514;-84
2021/08/11 09:33:25;;;;;;;6.23;3.00;;;;;;;26.97;41.44;98310.06;8383035;28;20202;-88
2021/08/11 09:37:46;;;;;;;3.80;2.80;;;;;;;27.45;41.27;98308.44;8382394;28;20245;-84
2021/08/11 09:42:00;;;;;;;4.27;3.00;;;;;;;28.39;41.08;98308.75;8382766;28;20207;-84
2021/08/11 09:46:03;;;;;;;6.63;3.23;;;;;;;28.45;38.79;98313.38;8382404;28;20214;-86
2021/08/11 09:50:08;;;;;;;5.53;3.47;;;;;;;28.35;39.49;98310.09;8382265;28;20273;-85
2021/08/11 09:54:11;;;;;;;5.70;3.23;;;;;;;28.27;38.63;98302.97;8381845;28;20215;-84
2021/08/11 09:58:20;;;;;;;6.50;2.83;;;;;;;28.91;39.03;98315.31;8381736;28;20429;-85
2021/08/11 10:02:25;;;;;;;11.80;5.90;;;;;;;28.63;40.91;98297.16;8381956;28;20208;-85
2021/08/11 10:06:29;;;;;;;5.57;3.07;;;;;;;29.54;38.22;98307.19;8381578;28;20234;-83
2021/08/11 10:10:44;;;;;;;6.73;4.37;;;;;;;28.23;38.47;98303.47;8381812;28;20210;-83
2021/08/11 10:14:49;;;;;;;5.40;3.43;;;;;;;27.48;40.71;98317.94;8385034;28;20202;-83
2021/08/11 10:18:53;;;;;;;10.47;5.73;;;;;;;27.06;42.71;98310.91;8387963;28;20229;-82
2021/08/11 10:22:56;;;;;;;6.00;3.30;;;;;;;28.32;41.15;98305.09;8387756;28;20202;-82
2021/08/11 10:26:59;;;;;;;5.70;2.80;;;;;;;28.99;38.99;98304.59;8387709;28;20390;-83
2021/08/11 10:31:04;;;;;;;3.30;2.77;;;;;;;28.88;38.74;98315.66;8387565;28;20207;-83
2021/08/11 10:35:07;;;;;;;6.37;3.20;;;;;;;28.88;38.15;98306.84;8387117;28;20288;-84
2021/08/11 10:39:10;;;;;;;4.83;3.30;;;;;;;28.84;36.50;98311.69;8387304;28;20234;-86
2021/08/11 10:43:14;;;;;;;5.07;2.63;;;;;;;28.10;38.82;98317.31;8387602;28;20209;-85
2021/08/11 10:47:20;;;;;;;3.50;2.70;;;;;;;27.73;39.68;98310.75;8387217;28;20213;-90
2021/08/11 10:51:36;;;;;;;4.10;2.90;;;;;;;27.48;39.65;98310.78;8388050;28;20209;-89
2021/08/11 10:55:41;;;;;;;8.43;3.13;;;;;;;28.22;38.66;98307.97;8387051;28;20201;-85
2021/08/11 10:59:48;;;;;;;4.13;2.83;;;;;;;28.73;38.67;98296.94;8386800;28;20380;-85
2021/08/11 11:03:53;;;;;;;5.03;2.70;;;;;;;28.44;40.08;98300.22;8386575;28;20422;-84
2021/08/11 11:08:29;;;;;;;4.07;2.40;;;;;;;29.68;37.07;98301.03;8386152;28;20205;-84
2021/08/11 11:12:39;;;;;;;3.90;2.73;;;;;;;30.36;37.15;98299.16;8386147;28;20211;-85
2021/08/11 11:17:15;;;;;;;4.63;2.83;;;;;;;30.13;36.22;98285.06;8385868;28;20238;-85
2021/08/11 11:21:32;;;;;;;5.23;2.40;;;;;;;29.98;35.64;98290.41;8385827;28;20524;-87
2021/08/11 11:26:05;;;;;;;3.63;2.37;;;;;;;30.21;34.07;98282.28;8384955;28;20210;-86
2021/08/11 11:30:09;;;;;;;4.53;2.30;;;;;;;29.13;37.46;98289.72;8385761;28;20393;-83
2021/08/11 11:34:36;;;;;;;4.57;2.00;;;;;;;29.62;35.33;98286.59;8385695;28;20392;-83
2021/08/11 11:39:08;;;;;;;3.23;1.90;;;;;;;29.94;34.93;98275.78;8382996;28;20250;-83
2021/08/11 11:43:23;;;;;;;2.13;1.90;;;;;;;30.34;33.43;98279.00;8385396;28;20482;-83
2021/08/11 11:48:09;;;;;;;3.17;2.40;;;;;;;30.38;34.47;98278.41;8385275;28;20206;-84
2021/08/11 11:52:16;;;;;;;5.33;2.47;;;;;;;29.49;35.22;98285.53;8384588;28;20216;-84
2021/08/11 11:56:21;;;;;;;3.90;2.37;;;;;;;29.31;36.60;98283.22;8384626;28;20538;-83
2021/08/11 12:00:24;;;;;;;4.50;2.40;;;;;;;28.61;36.29;98280.50;8384700;28;20226;-83
2021/08/11 12:04:27;;;;;;;7.73;2.50;;;;;;;29.76;36.55;98287.66;8384646;28;20229;-84
2021/08/11 12:08:31;;;;;;;3.93;2.30;;;;;;;29.59;36.76;98291.47;8384565;28;20223;-83
2021/08/11 12:12:35;;;;;;;3.30;2.10;;;;;;;28.98;37.88;98284.28;8384558;28;20207;-83
2021/08/11 12:16:39;;;;;;;5.17;2.20;;;;;;;29.69;36.35;98284.03;8384036;28;20239;-84
2021/08/11 12:20:43;;;;;;;6.40;2.53;;;;;;;29.68;36.69;98287.69;8384177;28;20433;-84
2021/08/11 12:24:46;;;;;;;3.23;2.40;;;;;;;29.29;37.46;98283.41;8384234;28;20308;-83
2021/08/11 12:28:50;;;;;;;2.90;2.20;;;;;;;30.24;35.65;98281.09;8383902;28;20204;-83
2021/08/11 12:32:53;;;;;;;5.00;2.40;;;;;;;29.96;36.51;98281.75;8383686;28;20209;-84
2021/08/11 12:36:58;;;;;;;3.10;2.20;;;;;;;30.25;34.26;98275.56;8383557;28;20236;-83
2021/08/11 12:41:16;;;;;;;3.23;2.30;;;;;;;30.73;34.32;98265.25;8383077;28;20200;-84
2021/08/11 12:45:20;;;;;;;5.33;2.57;;;;;;;30.00;33.89;98275.03;8385056;28;20202;-85
2021/08/11 12:49:24;;;;;;;3.90;2.50;;;;;;;29.88;33.27;98264.00;8383745;28;20204;-87
2021/08/11 12:53:28;;;;;;;3.97;2.40;;;;;;;30.23;34.58;98260.75;8383287;28;20200;-84
2021/08/11 12:57:51;;;;;;;4.63;2.30;;;;;;;30.52;33.22;98254.53;8382513;28;20228;-84
2021/08/11 13:01:56;;;;;;;5.23;2.40;;;;;;;30.28;33.83;98245.81;8382529;28;20199;-84
2021/08/11 13:06:00;;;;;;;3.87;2.57;;;;;;;30.49;34.89;98245.06;8382364;28;20304;-84
2021/08/11 13:10:13;;;;;;;5.83;2.50;;;;;;;30.41;36.63;98245.19;8382476;28;20375;-84
2021/08/11 13:14:16;;;;;;;3.20;2.40;;;;;;;30.01;36.34;98250.81;8382639;28;20386;-84
2021/08/11 13:18:26;;;;;;;3.33;2.33;;;;;;;29.80;35.64;98245.41;8382140;28;20418;-84
2021/08/11 13:22:29;;;;;;;4.83;2.10;;;;;;;29.60;34.79;98255.75;8382273;28;20206;-84
2021/08/11 13:26:32;;;;;;;4.53;2.30;;;;;;;29.56;36.21;98252.63;8382168;28;20207;-83
2021/08/11 13:30:36;;;;;;;4.47;2.50;;;;;;;29.49;34.58;98246.34;8382422;28;20208;-83
2021/08/11 13:34:40;;;;;;;3.00;2.30;;;;;;;29.68;34.94;98242.31;8381895;28;20448;-84
2021/08/11 13:38:43;;;;;;;7.13;2.60;;;;;;;29.57;36.55;98246.28;8381891;28;20249;-84
2021/08/11 13:42:46;;;;;;;3.47;2.57;;;;;;;29.54;37.14;98251.16;8381770;28;20361;-83
2021/08/11 13:46:49;;;;;;;3.57;2.60;;;;;;;29.72;35.60;98243.63;8381647;28;20231;-83
2021/08/11 13:50:53;;;;;;;3.57;2.63;;;;;;;30.11;35.56;98234.50;8386867;28;20200;-83
2021/08/11 13:54:56;;;;;;;4.23;2.73;;;;;;;30.43;35.74;98231.63;8388438;28;20544;-83
2021/08/11 13:58:59;;;;;;;4.70;2.50;;;;;;;30.54;35.34;98226.63;8388179;28;20302;-83
2021/08/11 14:03:02;;;;;;;5.37;2.60;;;;;;;30.51;34.32;98223.50;8388316;28;20207;-84
2021/08/11 14:07:06;;;;;;;4.50;2.47;;;;;;;30.05;34.79;98216.56;8387919;28;20334;-84
2021/08/11 14:11:09;;;;;;;3.87;2.20;;;;;;;29.41;35.64;98225.91;8387896;28;20230;-84
2021/08/11 14:15:12;;;;;;;3.83;2.50;;;;;;;29.11;36.75;98221.53;8388052;28;20201;-83
2021/08/11 14:19:15;;;;;;;4.13;2.40;;;;;;;28.78;37.12;98219.94;8387742;28;20230;-84
2021/08/11 14:23:20;;;;;;;2.63;2.23;;;;;;;28.55;37.37;98225.28;8387511;28;20208;-83
2021/08/11 14:27:22;;;;;;;3.97;2.30;;;;;;;28.45;37.68;98224.66;8387825;28;20211;-83
2021/08/11 14:31:27;;;;;;;3.37;2.37;;;;;;;28.62;37.75;98223.56;8387545;28;20202;-84
2021/08/11 14:35:30;;;;;;;3.40;2.27;;;;;;;28.65;37.53;98220.56;8387263;28;20306;-84
2021/08/11 14:39:34;;;;;;;4.77;2.33;;;;;;;28.77;37.57;98220.13;8387115;28;20417;-84
2021/08/11 14:43:37;;;;;;;4.93;2.70;;;;;;;28.61;37.08;98221.06;8387063;28;20214;-84
2021/08/11 14:47:41;;;;;;;3.23;2.80;;;;;;;28.30;37.45;98229.91;8387394;28;20513;-84
2021/08/11 14:51:44;;;;;;;3.13;2.63;;;;;;;28.17;37.09;98226.97;8387347;28;20292;-84
2021/08/11 14:55:48;;;;;;;4.80;2.90;;;;;;;27.94;38.16;98230.38;8387059;28;20208;-83
2021/08/11 14:59:51;;;;;;;7.50;3.03;;;;;;;27.93;38.16;98225.22;8385759;28;20238;-84
2021/08/11 15:03:54;;;;;;;8.27;2.80;;;;;;;27.85;39.18;98221.59;8386675;28;20221;-83
2021/08/11 15:07:58;;;;;;;4.77;2.57;;;;;;;27.83;38.88;98220.91;8386721;28;20534;-84
2021/08/11 15:12:02;;;;;;;3.87;2.90;;;;;;;27.74;39.25;98224.63;8386369;28;20211;-84
2021/08/11 15:16:05;;;;;;;2.93;2.63;;;;;;;27.69;37.76;98230.44;8386462;28;20203;-84
2021/08/11 15:20:09;;;;;;;4.43;3.27;;;;;;;27.58;38.78;98227.31;8386134;28;20227;-83
2021/08/11 15:24:12;;;;;;;6.47;3.13;;;;;;;27.55;39.42;98225.84;8385754;28;20426;-83
2021/08/11 15:28:16;;;;;;;5.07;3.30;;;;;;;27.47;38.95;98234.66;8385379;28;20206;-84
2021/08/11 15:32:19;;;;;;;5.80;3.00;;;;;;;27.33;38.29;98227.38;8385448;28;20209;-84
2021/08/11 15:36:22;;;;;;;5.13;3.63;;;;;;;27.33;38.42;98226.53;8385173;28;20247;-84
2021/08/11 15:40:25;;;;;;;3.83;2.90;;;;;;;27.26;39.05;98229.88;8385140;28;20224;-84
2021/08/11 15:44:29;;;;;;;6.97;3.50;;;;;;;27.19;39.80;98222.69;8385178;28;20208;-84
2021/08/11 15:48:32;;;;;;;4.13;2.97;;;;;;;27.18;40.01;98229.00;8385002;28;20216;-85
2021/08/11 15:52:35;;;;;;;6.27;3.30;;;;;;;27.16;38.97;98225.69;8385176;28;20237;-84
2021/08/11 15:56:38;;;;;;;4.43;4.03;;;;;;;27.04;39.50;98228.69;8384911;28;20207;-84
2021/08/11 16:00:42;;;;;;;5.93;3.33;;;;;;;27.14;40.27;98233.84;8384743;28;20243;-84
2021/08/11 16:04:46;;;;;;;4.07;3.30;;;;;;;27.13;39.79;98228.69;8384330;28;20232;-84
2021/08/11 16:08:48;;;;;;;4.23;3.10;;;;;;;27.19;40.01;98234.16;8384464;28;20525;-84
2021/08/11 16:12:51;;;;;;;5.77;3.27;;;;;;;27.34;39.95;98234.34;8383897;28;20210;-84
2021/08/11 16:16:56;;;;;;;6.30;3.40;;;;;;;27.29;40.00;98232.19;8384268;28;20232;-84
2021/08/11 16:20:59;;;;;;;7.20;3.37;;;;;;;27.40;40.08;98239.00;8383989;28;20302;-84
2021/08/11 16:25:02;;;;;;;6.97;3.40;;;;;;;27.42;38.52;98241.50;8384023;28;20401;-84
2021/08/11 16:29:05;;;;;;;3.90;3.33;;;;;;;27.26;37.89;98248.50;8383753;28;20231;-84
2021/08/11 16:33:10;;;;;;;7.00;3.67;;;;;;;27.21;38.36;98247.31;8383702;28;20211;-84
2021/08/11 16:37:13;;;;;;;5.53;3.30;;;;;;;27.13;38.10;98237.50;8383634;28;20401;-85
2021/08/11 16:41:16;;;;;;;4.57;3.53;;;;;;;27.10;38.03;98235.16;8383350;28;20229;-84
2021/08/11 16:45:21;;;;;;;4.27;3.50;;;;;;;27.00;38.40;98231.84;8383392;28;20223;-85
2021/08/11 16:49:25;;;;;;;5.23;3.20;;;;;;;26.86;38.73;98228.00;8383440;28;20515;-84
2021/08/11 16:53:28;;;;;;;5.73;3.47;;;;;;;26.72;39.01;98229.50;8383196;28;20216;-84
2021/08/11 16:57:31;;;;;;;7.07;3.73;;;;;;;26.67;38.84;98229.16;8383077;28;20204;-85
2021/08/11 17:01:34;;;;;;;5.30;3.10;;;;;;;26.64;39.23;98237.47;8382969;28;20400;-84
2021/08/11 17:05:39;;;;;;;4.87;3.10;;;;;;;26.61;40.60;98235.13;8382538;28;20224;-84
2021/08/11 17:09:42;;;;;;;4.40;3.40;;;;;;;26.51;40.95;98232.59;8382640;28;20495;-85
2021/08/11 17:13:44;;;;;;;4.73;3.50;;;;;;;26.36;40.34;98234.22;8382540;28;20501;-84
2021/08/11 17:17:47;;;;;;;5.23;3.30;;;;;;;26.26;40.05;98232.53;8382845;28;20203;-85
2021/08/11 17:21:52;;;;;;;4.40;3.30;;;;;;;26.13;40.39;98238.28;8382626;28;20210;-84
2021/08/11 17:25:54;;;;;;;5.47;3.87;;;;;;;26.17;40.93;98238.81;8381841;28;20202;-85
2021/08/11 17:29:57;;;;;;;8.00;4.20;;;;;;;26.11;41.38;98245.59;8382625;28;20524;-84
2021/08/11 17:34:00;;;;;;;3.73;3.10;;;;;;;26.07;42.49;98246.91;8382423;28;20203;-84
2021/08/11 17:38:05;;;;;;;5.20;3.40;;;;;;;26.03;42.12;98247.38;8382367;28;20250;-85
2021/08/11 17:42:08;;;;;;;5.53;3.23;;;;;;;25.97;42.12;98253.31;8382384;28;20205;-84
2021/08/11 17:46:11;;;;;;;3.43;3.10;;;;;;;25.89;43.36;98246.13;8382322;28;20206;-85
2021/08/11 17:50:14;;;;;;;5.07;3.33;;;;;;;25.79;41.99;98243.59;8381952;28;20213;-84
2021/08/11 17:54:18;;;;;;;4.77;3.30;;;;;;;25.75;42.99;98242.25;8382126;28;20210;-84
2021/08/11 17:58:21;;;;;;;5.90;3.70;;;;;;;25.68;43.28;98243.84;8381658;28;20224;-84
2021/08/11 18:02:24;;;;;;;6.60;4.10;;;;;;;25.61;43.56;98246.31;8382017;28;20202;-84
2021/08/11 18:06:27;;;;;;;6.50;3.97;;;;;;;25.51;44.31;98241.13;8381654;28;20230;-84
2021/08/11 18:10:31;;;;;;;4.17;3.20;;;;;;;25.50;44.79;98250.06;8381596;28;20210;-84
2021/08/11 18:14:35;;;;;;;8.40;3.90;;;;;;;25.40;44.83;98254.63;8378596;28;20224;-84
2021/08/11 18:18:38;;;;;;;7.23;4.17;;;;;;;25.34;45.28;98250.78;8348275;28;20282;-84
2021/08/11 18:22:40;;;;;;;8.90;3.37;;;;;;;25.34;44.70;98256.09;8348473;28;20363;-85
2021/08/11 18:26:45;;;;;;;14.23;3.73;;;;;;;25.29;45.15;98262.84;8348395;28;20203;-84
2021/08/11 18:30:54;;;;;;;8.67;3.87;;;;;;;25.20;45.79;98276.97;8348639;28;20210;-84
2021/08/11 18:34:57;;;;;;;7.50;3.83;;;;;;;25.10;46.08;98277.06;8350227;28;20209;-84
2021/08/11 18:39:00;;;;;;;10.80;3.87;;;;;;;25.06;46.15;98278.34;8354564;28;20559;-85
2021/08/11 18:43:04;;;;;;;10.20;3.97;;;;;;;25.01;46.64;98286.75;8357316;28;20211;-84
2021/08/11 18:47:08;;;;;;;53.87;12.37;;;;;;;24.99;50.74;98294.00;8354185;28;20518;-84
2021/08/11 18:51:11;;;;;;;29.17;7.33;;;;;;;24.86;53.44;98304.16;8354020;28;20210;-84
2021/08/11 18:55:14;;;;;;;13.43;4.23;;;;;;;24.70;54.53;98303.00;8353812;28;20217;-84
2021/08/11 18:59:18;;;;;;;9.70;4.67;;;;;;;24.64;54.07;98306.25;8353403;28;20259;-84
2021/08/11 19:03:21;;;;;;;5.70;4.07;;;;;;;24.59;54.00;98308.50;8353445;28;20223;-84
2021/08/11 19:07:24;;;;;;;8.00;4.57;;;;;;;24.51;54.68;98311.03;8353156;28;20222;-84
2021/08/11 19:11:29;;;;;;;7.13;4.00;;;;;;;24.44;54.89;98309.97;8352955;28;20212;-84
2021/08/11 19:15:33;;;;;;;9.97;4.37;;;;;;;24.33;54.39;98309.19;8353212;28;20205;-85